Time;durP1;ratioP1;P1;durP2;ratioP2;P2;SDS_P1;SDS_P2;PMS_P1;PMS_P2;Temp;Humidity;BMP_temperature;BMP_pressure;BME280_temperature;BME280_humidity;BME280_pressure;Samples;Min_cycle;Max_cycle;Signal;HPM_P1;HPM_P2
2023/02/19 05:30:16;;;;;;;5.72;1.52;;;12.30;78.20;;;;;;6096221;23;20116;-85
2023/02/19 05:32:41;;;;;;;2.53;1.20;;;12.30;78.00;;;;;;6126146;23;20010;-85
2023/02/19 05:35:07;;;;;;;4.40;1.38;;;12.30;78.10;;;;;;6101642;23;20091;-85
2023/02/19 05:37:33;;;;;;;5.03;1.30;;;12.30;77.90;;;;;;6129730;23;20350;-85
2023/02/19 05:39:59;;;;;;;2.60;1.10;;;12.30;77.90;;;;;;6104082;23;20006;-85
2023/02/19 05:42:24;;;;;;;5.82;1.25;;;12.30;77.60;;;;;;6128735;23;20096;-86
2023/02/19 05:44:50;;;;;;;5.28;1.13;;;12.30;77.40;;;;;;6130150;23;20832;-85
2023/02/19 05:47:16;;;;;;;4.13;1.45;;;12.30;76.50;;;;;;6104054;23;20013;-85
2023/02/19 05:49:41;;;;;;;3.47;1.13;;;12.20;75.90;;;;;;6104159;23;20006;-86
2023/02/19 05:52:07;;;;;;;2.55;1.10;;;12.10;75.60;;;;;;6104137;23;20521;-86
2023/02/19 05:54:32;;;;;;;7.35;1.27;;;12.00;75.60;;;;;;6104356;23;20032;-86
2023/02/19 05:56:58;;;;;;;5.32;1.25;;;12.00;75.00;;;;;;6130135;23;20002;-85
2023/02/19 05:59:26;;;;;;;8.82;1.67;;;11.90;74.50;;;;;;6129521;23;20014;-85
2023/02/19 06:01:53;;;;;;;3.90;1.25;;;11.90;74.30;;;;;;6128045;23;20002;-85
2023/02/19 06:04:19;;;;;;;2.20;0.75;;;12.00;74.60;;;;;;6129077;23;20030;-86
2023/02/19 06:06:46;;;;;;;6.50;1.45;;;11.90;74.60;;;;;;6103984;23;20010;-85
2023/02/19 06:09:12;;;;;;;3.55;0.90;;;12.00;74.60;;;;;;6130080;23;20431;-86
2023/02/19 06:11:39;;;;;;;5.60;0.95;;;11.90;74.40;;;;;;6130224;23;20009;-86
2023/02/19 06:14:05;;;;;;;3.92;0.90;;;11.90;74.50;;;;;;6129898;23;20308;-86
2023/02/19 06:16:32;;;;;;;1.27;0.70;;;11.90;74.50;;;;;;6129896;23;20054;-86
2023/02/19 06:19:00;;;;;;;5.78;1.10;;;11.90;74.80;;;;;;6104407;23;20006;-85
2023/02/19 06:21:26;;;;;;;4.88;1.05;;;11.90;74.70;;;;;;6104816;23;20016;-86
2023/02/19 06:23:51;;;;;;;5.65;1.13;;;11.90;74.60;;;;;;6129629;23;20026;-86
2023/02/19 06:26:20;;;;;;;6.13;0.95;;;11.90;75.00;;;;;;6104019;23;20023;-86
2023/02/19 06:28:48;;;;;;;2.35;0.73;;;11.80;75.30;;;;;;6104233;23;20657;-85
2023/02/19 06:31:14;;;;;;;3.47;0.77;;;11.80;75.50;;;;;;6129518;23;20346;-86
2023/02/19 06:33:40;;;;;;;3.67;1.48;;;11.80;75.60;;;;;;6129672;23;20002;-86
2023/02/19 06:36:30;;;;;;;1.60;0.85;;;11.80;75.50;;;;;;6104169;23;20085;-86
2023/02/19 06:38:59;;;;;;;3.10;0.95;;;11.80;75.70;;;;;;6089753;23;20422;-86
2023/02/19 06:41:24;;;;;;;8.63;1.55;;;11.80;75.50;;;;;;6129456;23;20540;-86
2023/02/19 06:43:50;;;;;;;8.73;1.67;;;11.80;75.70;;;;;;6104154;23;20009;-86
2023/02/19 06:46:16;;;;;;;6.30;1.25;;;11.80;75.50;;;;;;6104216;23;20006;-85
2023/02/19 06:48:44;;;;;;;1.85;1.00;;;11.80;75.60;;;;;;6129761;23;20006;-84
2023/02/19 06:51:17;;;;;;;3.22;1.15;;;11.80;75.60;;;;;;6103982;23;20037;-84
2023/02/19 06:53:45;;;;;;;5.80;1.35;;;11.80;75.70;;;;;;6129935;23;20010;-87
2023/02/19 06:56:25;;;;;;;5.55;1.15;;;11.90;75.50;;;;;;6103917;23;20057;-84
2023/02/19 06:59:10;;;;;;;4.68;1.63;;;11.80;75.70;;;;;;6104161;23;20063;-85
2023/02/19 07:01:38;;;;;;;6.90;1.98;;;11.80;75.60;;;;;;6129771;23;20033;-86
2023/02/19 07:04:05;;;;;;;4.28;1.02;;;11.80;75.90;;;;;;6129448;23;20002;-76
2023/02/19 07:06:31;;;;;;;3.08;1.13;;;11.80;76.00;;;;;;6129087;23;20005;-80
2023/02/19 07:08:58;;;;;;;7.57;1.55;;;11.80;76.00;;;;;;6129799;23;20002;-76
2023/02/19 07:11:25;;;;;;;1.27;0.98;;;11.80;76.00;;;;;;6103571;23;20014;-77
2023/02/19 07:13:55;;;;;;;2.00;0.90;;;11.80;76.00;;;;;;6129110;23;20006;-77
2023/02/19 07:16:21;;;;;;;;;;;11.80;75.80;;;;;;6122328;23;20336;-77
2023/02/19 07:18:46;;;;;;;5.70;1.30;;;11.80;76.00;;;;;;6099302;23;19977;-76
2023/02/19 07:21:14;;;;;;;1.88;0.85;;;11.90;75.80;;;;;;6128904;23;20410;-77
2023/02/19 07:23:40;;;;;;;5.50;1.35;;;11.90;75.90;;;;;;6102673;23;20022;-74
2023/02/19 07:26:14;;;;;;;3.58;1.60;;;11.90;76.00;;;;;;6127087;23;20013;-76
2023/02/19 07:28:42;;;;;;;2.85;1.15;;;11.90;76.00;;;;;;6126362;23;20102;-76
2023/02/19 07:31:08;;;;;;;5.75;1.80;;;11.90;76.20;;;;;;6128237;23;20018;-76
2023/02/19 07:33:33;;;;;;;2.92;1.02;;;11.90;76.20;;;;;;6102469;23;20069;-72
2023/02/19 07:35:59;;;;;;;4.22;1.17;;;11.90;76.50;;;;;;6128697;23;20002;-75
2023/02/19 07:38:25;;;;;;;3.72;1.30;;;11.90;76.60;;;;;;6129187;23;20044;-76
2023/02/19 07:40:58;;;;;;;6.43;1.45;;;11.90;76.50;;;;;;6129215;23;20009;-76
2023/02/19 07:43:27;;;;;;;2.97;1.23;;;11.90;76.60;;;;;;6129329;23;20316;-77
2023/02/19 07:45:53;;;;;;;8.82;1.67;;;11.80;76.70;;;;;;6128779;23;20002;-78
2023/02/19 07:48:19;;;;;;;5.20;1.27;;;11.90;76.80;;;;;;6103511;23;20001;-76
2023/02/19 07:50:51;;;;;;;2.10;1.20;;;11.90;76.80;;;;;;6128873;23;20066;-75
2023/02/19 07:53:18;;;;;;;6.18;1.50;;;11.80;76.90;;;;;;6102563;23;20355;-76
2023/02/19 07:55:44;;;;;;;12.48;4.15;;;11.90;77.00;;;;;;6128461;23;20001;-78
2023/02/19 07:58:09;;;;;;;8.70;3.03;;;11.90;76.70;;;;;;6123683;23;20446;-77
2023/02/19 08:00:35;;;;;;;8.45;1.70;;;11.90;76.70;;;;;;6127950;23;20014;-77
2023/02/19 08:03:01;;;;;;;4.50;1.58;;;11.90;76.60;;;;;;6128159;23;20462;-77
2023/02/19 08:05:29;;;;;;;3.35;1.35;;;11.90;76.50;;;;;;6129056;23;20006;-77
2023/02/19 08:07:55;;;;;;;7.60;1.42;;;12.00;76.40;;;;;;6127938;23;20099;-76
2023/02/19 08:13:18;;;;;;;4.00;1.20;;;12.00;76.40;;;;;;6128920;23;20469;-76
2023/02/19 08:15:49;;;;;;;3.90;1.40;;;12.00;76.00;;;;;;6128224;23;20022;-77
2023/02/19 08:18:16;;;;;;;3.72;1.98;;;11.90;76.00;;;;;;6128569;23;20009;-80
2023/02/19 08:20:42;;;;;;;3.42;1.40;;;12.00;76.00;;;;;;6102430;23;20013;-78
2023/02/19 08:23:09;;;;;;;3.80;1.38;;;12.00;75.80;;;;;;6093663;23;20045;-82
2023/02/19 08:25:35;;;;;;;4.15;1.20;;;12.00;75.60;;;;;;6128138;23;20029;-78
2023/02/19 08:28:01;;;;;;;4.47;1.50;;;12.00;75.40;;;;;;6125386;23;19998;-78
2023/02/19 08:30:28;;;;;;;4.47;1.23;;;12.00;75.00;;;;;;6097600;23;20391;-78
2023/02/19 08:32:54;;;;;;;5.82;2.20;;;12.10;75.00;;;;;;6102155;23;20006;-81
2023/02/19 08:35:20;;;;;;;5.28;1.73;;;12.10;74.90;;;;;;6126751;23;20081;-77
2023/02/19 08:37:45;;;;;;;6.63;1.63;;;12.20;74.70;;;;;;6128391;23;20002;-80
2023/02/19 08:40:11;;;;;;;3.03;1.27;;;12.20;74.40;;;;;;6127542;23;20058;-79
2023/02/19 08:42:37;;;;;;;7.50;2.38;;;12.30;74.20;;;;;;6127657;23;20006;-79
2023/02/19 08:45:03;;;;;;;3.17;1.30;;;12.30;74.00;;;;;;6128494;23;20010;-81
2023/02/19 08:47:29;;;;;;;3.75;1.50;;;12.30;74.00;;;;;;6128660;23;20002;-90
2023/02/19 08:49:55;;;;;;;5.88;1.30;;;12.30;73.80;;;;;;6101098;23;20013;-89
2023/02/19 08:52:20;;;;;;;7.18;1.70;;;12.30;73.60;;;;;;6100938;23;20010;-86
2023/02/19 08:54:49;;;;;;;5.32;1.17;;;12.30;73.30;;;;;;6101986;23;20033;-78
2023/02/19 08:57:18;;;;;;;3.30;1.17;;;12.30;73.30;;;;;;6128330;23;20013;-85
2023/02/19 08:59:43;;;;;;;3.25;1.15;;;12.40;73.10;;;;;;6127892;23;20030;-86
2023/02/19 09:02:11;;;;;;;8.13;1.50;;;12.40;73.10;;;;;;6127854;23;20010;-89
2023/02/19 09:04:37;;;;;;;1.92;1.05;;;12.50;73.00;;;;;;6103332;23;20065;-85
2023/02/19 09:07:08;;;;;;;5.72;1.33;;;12.50;72.80;;;;;;6105644;23;20029;-87
2023/02/19 09:09:53;;;;;;;4.78;1.55;;;12.60;72.70;;;;;;6131785;23;20230;-82
2023/02/19 09:12:19;;;;;;;2.55;1.23;;;12.60;73.00;;;;;;6131214;23;20009;-76
2023/02/19 09:14:45;;;;;;;1.80;1.13;;;12.70;72.40;;;;;;6102447;23;20093;-82
2023/02/19 09:17:11;;;;;;;4.82;1.27;;;12.70;72.00;;;;;;6129890;23;20013;-81
2023/02/19 09:19:38;;;;;;;2.78;1.40;;;12.70;72.40;;;;;;6105193;23;20334;-84
2023/02/19 09:22:04;;;;;;;4.90;1.25;;;12.80;72.10;;;;;;6130791;23;20077;-85
2023/02/19 09:24:31;;;;;;;5.35;1.98;;;12.80;72.10;;;;;;6105377;23;20006;-87
2023/02/19 09:26:57;;;;;;;3.72;1.00;;;12.90;71.60;;;;;;6104926;23;20034;-88
2023/02/19 09:29:25;;;;;;;6.90;1.30;;;12.80;70.50;;;;;;6104123;23;20013;-82
2023/02/19 09:31:54;;;;;;;5.53;1.05;;;12.90;70.30;;;;;;6124810;23;20097;-80
2023/02/19 09:34:20;;;;;;;5.20;1.73;;;13.00;70.10;;;;;;6104149;23;20048;-80
2023/02/19 09:36:48;;;;;;;7.18;2.33;;;13.00;70.00;;;;;;6129790;23;20346;-85
2023/02/19 09:39:13;;;;;;;6.50;2.17;;;12.90;69.60;;;;;;6130575;23;20041;-81
2023/02/19 09:41:51;;;;;;;6.95;2.28;;;12.90;69.50;;;;;;6125806;23;20033;-81
2023/02/19 09:44:29;;;;;;;11.75;3.35;;;12.80;69.30;;;;;;6129356;23;20447;-82
2023/02/19 09:46:55;;;;;;;3.97;1.30;;;12.90;69.70;;;;;;6128920;23;20009;-84
2023/02/19 09:49:32;;;;;;;5.90;1.50;;;13.00;69.60;;;;;;6129448;23;20006;-82
2023/02/19 09:52:13;;;;;;;3.22;1.38;;;13.00;69.50;;;;;;6124591;23;20009;-83
2023/02/19 09:54:40;;;;;;;3.78;1.33;;;13.10;68.90;;;;;;6129406;23;20066;-82
2023/02/19 09:57:17;;;;;;;2.10;1.23;;;13.10;68.60;;;;;;6129601;23;20017;-83
2023/02/19 09:59:52;;;;;;;3.22;1.42;;;13.20;68.50;;;;;;6127362;23;20085;-83
2023/02/19 10:02:23;;;;;;;6.00;1.75;;;13.20;68.60;;;;;;6128833;23;20005;-83
2023/02/19 10:04:50;;;;;;;5.55;1.48;;;13.30;68.40;;;;;;6129726;23;19998;-83
2023/02/19 10:07:23;;;;;;;2.22;1.02;;;13.30;68.20;;;;;;6103999;23;20006;-83
2023/02/19 10:09:59;;;;;;;3.75;1.10;;;13.30;68.00;;;;;;6129626;23;20379;-83
2023/02/19 10:12:28;;;;;;;5.47;1.30;;;13.40;68.20;;;;;;6102900;23;20061;-83
2023/02/19 10:15:10;;;;;;;3.50;1.23;;;13.50;67.80;;;;;;6129305;23;20394;-83
2023/02/19 10:17:36;;;;;;;4.63;1.20;;;13.40;67.60;;;;;;6103326;23;20049;-83
2023/02/19 10:20:03;;;;;;;3.28;1.88;;;13.50;67.90;;;;;;6103902;23;20037;-83
2023/02/19 10:22:34;;;;;;;7.88;1.88;;;13.50;67.30;;;;;;6101579;23;20464;-84
2023/02/19 10:25:01;;;;;;;7.05;1.42;;;13.50;67.00;;;;;;6103145;23;20005;-83
2023/02/19 10:27:31;;;;;;;4.03;1.90;;;13.60;67.30;;;;;;6121181;23;20049;-83
2023/02/19 10:29:59;;;;;;;6.65;1.20;;;13.50;67.30;;;;;;6125891;23;20002;-83
2023/02/19 10:32:26;;;;;;;5.10;1.30;;;13.60;66.90;;;;;;6124821;23;20038;-83
2023/02/19 10:35:13;;;;;;;5.93;1.95;;;13.60;67.20;;;;;;6128100;23;20097;-83
2023/02/19 10:37:50;;;;;;;4.93;2.30;;;13.70;66.70;;;;;;6129223;23;20362;-84
2023/02/19 10:40:19;;;;;;;3.25;1.48;;;13.80;66.20;;;;;;6126807;23;20029;-83
2023/02/19 10:42:50;;;;;;;3.30;1.40;;;13.80;65.90;;;;;;6125095;23;20009;-84
2023/02/19 10:45:28;;;;;;;2.95;1.33;;;13.80;65.50;;;;;;6129212;23;20494;-83
2023/02/19 10:47:53;;;;;;;3.25;1.35;;;13.90;65.40;;;;;;6102593;23;20010;-83
2023/02/19 10:50:25;;;;;;;2.47;1.10;;;14.00;65.20;;;;;;6129164;23;20509;-84
2023/02/19 10:52:54;;;;;;;4.00;1.10;;;14.10;64.80;;;;;;6129052;23;20008;-83
2023/02/19 10:55:31;;;;;;;4.68;1.50;;;14.20;64.70;;;;;;6126482;23;20030;-83
2023/02/19 10:57:57;;;;;;;5.03;1.70;;;14.10;64.80;;;;;;6103380;23;20038;-83
2023/02/19 11:00:29;;;;;;;7.28;2.88;;;14.20;65.00;;;;;;6102651;23;20347;-86
2023/02/19 11:03:21;;;;;;;9.68;2.03;;;14.20;63.90;;;;;;6103238;23;20201;-82
2023/02/19 11:05:59;;;;;;;4.18;1.20;;;14.30;64.70;;;;;;6085497;23;20013;-78
2023/02/19 11:08:24;;;;;;;2.90;1.05;;;14.50;63.60;;;;;;6128776;23;20013;-81
2023/02/19 11:10:50;;;;;;;2.33;1.23;;;14.60;62.70;;;;;;6127244;23;20746;-84
2023/02/19 11:13:25;;;;;;;2.95;1.23;;;14.70;62.60;;;;;;6102793;23;20009;-78
2023/02/19 11:15:53;;;;;;;3.45;1.52;;;14.80;62.20;;;;;;6102398;23;20013;-77
2023/02/19 11:18:24;;;;;;;3.83;0.90;;;14.70;61.50;;;;;;6102669;23;20006;-77
2023/02/19 11:20:59;;;;;;;6.60;1.17;;;14.80;61.70;;;;;;6126755;23;20029;-76
2023/02/19 11:23:42;;;;;;;1.73;1.10;;;14.80;61.60;;;;;;6126202;23;20002;-85
2023/02/19 11:26:23;;;;;;;1.92;1.05;;;14.80;61.60;;;;;;6126959;23;19998;-81
2023/02/19 11:28:57;;;;;;;5.32;1.13;;;14.70;61.80;;;;;;6101944;23;20025;-85
2023/02/19 11:31:30;;;;;;;2.55;1.85;;;14.80;62.00;;;;;;6112742;23;20049;-84
2023/02/19 11:33:57;;;;;;;5.93;1.20;;;14.80;61.70;;;;;;6128196;23;20347;-87
2023/02/19 11:36:34;;;;;;;2.97;1.45;;;14.80;61.10;;;;;;6123277;23;20002;-77
2023/02/19 11:39:14;;;;;;;3.90;2.50;;;14.70;61.50;;;;;;6127445;23;20435;-83
2023/02/19 11:42:17;;;;;;;5.97;1.50;;;14.80;61.60;;;;;;6119904;23;20100;-83
2023/02/19 11:44:49;;;;;;;3.83;1.45;;;14.80;62.10;;;;;;6130212;23;20005;-90
2023/02/19 11:47:42;;;;;;;8.02;1.65;;;14.90;61.70;;;;;;6127716;23;20010;-88
2023/02/19 11:50:43;;;;;;;3.78;1.50;;;14.80;60.50;;;;;;6130205;23;20025;-81
2023/02/19 11:53:25;;;;;;;2.38;0.85;;;14.80;61.80;;;;;;6127868;23;20006;-88
2023/02/19 11:56:22;;;;;;;5.00;1.27;;;14.90;62.00;;;;;;6128017;23;20033;-82
2023/02/19 11:58:56;;;;;;;2.67;0.98;;;15.10;62.20;;;;;;6129329;23;20494;-84
2023/02/19 12:01:47;;;;;;;5.97;1.55;;;15.10;61.30;;;;;;6127998;23;20012;-87
2023/02/19 12:04:44;;;;;;;3.08;1.00;;;15.10;60.80;;;;;;6128944;23;19998;-78
2023/02/19 12:07:16;;;;;;;9.13;2.25;;;15.10;61.60;;;;;;6129210;23;20049;-84
2023/02/19 12:09:50;;;;;;;6.20;2.30;;;15.10;61.30;;;;;;6128159;23;20010;-84
2023/02/19 12:12:28;;;;;;;2.53;1.10;;;15.10;61.30;;;;;;6127903;23;20006;-85
2023/02/19 12:15:07;;;;;;;2.47;1.20;;;15.10;61.00;;;;;;6129286;23;20022;-86
2023/02/19 12:17:55;;;;;;;5.07;1.00;;;15.20;60.70;;;;;;6126695;23;20006;-85
2023/02/19 12:20:37;;;;;;;5.55;1.45;;;15.20;60.80;;;;;;6128997;23;20062;-87
2023/02/19 12:23:31;;;;;;;1.63;0.98;;;15.30;60.40;;;;;;6128612;23;20013;-80
2023/02/19 12:26:26;;;;;;;2.70;1.08;;;15.40;60.40;;;;;;6129019;23;20028;-87
2023/02/19 12:29:06;;;;;;;1.90;0.93;;;15.60;59.70;;;;;;6129128;23;19998;-84
2023/02/19 12:31:33;;;;;;;;;;;15.60;59.00;;;;;;6129122;23;20410;-80
2023/02/19 12:34:28;;;;;;;4.00;1.10;;;15.70;58.60;;;;;;6128856;23;19905;-84
2023/02/19 12:37:15;;;;;;;4.03;0.90;;;15.70;58.50;;;;;;6049030;23;20033;-82
2023/02/19 12:40:07;;;;;;;3.97;1.30;;;15.70;58.70;;;;;;6125021;23;20005;-85
2023/02/19 12:42:51;;;;;;;6.07;1.13;;;15.80;58.60;;;;;;6127493;23;20013;-88
2023/02/19 12:45:23;;;;;;;2.47;1.10;;;15.80;57.40;;;;;;6120446;23;20006;-88
2023/02/19 12:48:02;;;;;;;2.63;0.95;;;15.80;57.40;;;;;;6124140;23;19998;-87
2023/02/19 12:50:30;;;;;;;4.43;1.38;;;15.80;58.20;;;;;;6096566;23;20006;-87
2023/02/19 12:53:06;;;;;;;4.60;1.52;;;15.70;59.30;;;;;;6100789;23;20006;-87
2023/02/19 12:55:37;;;;;;;5.43;0.98;;;15.70;59.00;;;;;;6127968;23;20438;-86
2023/02/19 12:58:08;;;;;;;6.28;1.45;;;15.70;58.90;;;;;;6101719;23;20061;-87
2023/02/19 13:00:46;;;;;;;4.45;1.30;;;15.80;58.70;;;;;;6127583;23;20002;-82
2023/02/19 13:03:43;;;;;;;3.42;1.02;;;16.00;58.60;;;;;;6099787;23;20006;-87
2023/02/19 13:06:21;;;;;;;5.30;1.27;;;16.10;59.20;;;;;;6101172;23;20006;-87
2023/02/19 13:09:03;;;;;;;8.35;1.58;;;16.10;58.40;;;;;;6101301;23;20045;-88
2023/02/19 13:11:43;;;;;;;2.33;0.80;;;16.10;59.20;;;;;;6127245;23;20006;-88
2023/02/19 13:14:15;;;;;;;5.88;1.40;;;16.10;57.90;;;;;;6101571;23;20052;-86
2023/02/19 13:16:47;;;;;;;4.28;1.25;;;15.90;58.60;;;;;;6125092;23;20073;-86
2023/02/19 13:19:13;;;;;;;5.28;1.40;;;15.80;59.00;;;;;;6127424;23;20006;-87
2023/02/19 13:24:35;;;;;;;3.28;1.02;;;15.70;59.70;;;;;;6125212;23;20021;-83
2023/02/19 13:27:38;;;;;;;4.47;1.10;;;15.70;60.10;;;;;;6128036;23;19998;-83
2023/02/19 13:30:30;;;;;;;2.25;1.00;;;15.90;59.20;;;;;;6127218;23;20510;-84
2023/02/19 13:33:20;;;;;;;2.67;1.50;;;16.00;58.80;;;;;;6101730;23;20097;-83
2023/02/19 13:36:19;;;;;;;5.40;1.50;;;15.80;59.10;;;;;;6128424;23;20005;-84
2023/02/19 13:38:47;;;;;;;4.03;1.50;;;15.80;58.60;;;;;;6102054;23;20002;-84
2023/02/19 13:41:30;;;;;;;5.28;1.60;;;15.70;58.60;;;;;;6128187;23;20009;-84
2023/02/19 13:44:00;;;;;;;5.47;1.80;;;15.60;58.60;;;;;;6127282;23;20009;-84
2023/02/19 13:46:35;;;;;;;1.65;0.90;;;15.50;58.50;;;;;;6101486;23;20054;-84
2023/02/19 13:49:22;;;;;;;5.13;1.70;;;15.50;59.00;;;;;;6099999;23;20009;-84
2023/02/19 13:52:02;;;;;;;6.40;2.15;;;15.40;59.00;;;;;;6126734;23;20446;-83
2023/02/19 13:54:34;;;;;;;5.40;2.03;;;15.40;59.40;;;;;;6129838;23;20012;-84
2023/02/19 13:57:22;;;;;;;5.47;1.55;;;15.30;59.40;;;;;;6122889;23;20006;-84
2023/02/19 13:59:52;;;;;;;6.40;1.10;;;15.30;59.40;;;;;;6129336;23;20521;-83
2023/02/19 14:02:20;;;;;;;2.78;1.30;;;15.30;59.40;;;;;;6098828;23;20597;-83
2023/02/19 14:04:49;;;;;;;6.05;1.65;;;15.30;59.10;;;;;;6129733;23;20054;-84
2023/02/19 14:07:15;;;;;;;1.70;1.40;;;15.30;58.90;;;;;;6130122;23;20089;-82
2023/02/19 14:09:42;;;;;;;5.78;1.95;;;15.30;58.90;;;;;;6129771;23;20002;-82
2023/02/19 14:12:11;;;;;;;4.38;1.30;;;15.30;59.10;;;;;;6103824;23;20010;-83
2023/02/19 14:14:36;;;;;;;4.40;1.58;;;15.30;59.10;;;;;;6129922;23;20006;-83
2023/02/19 14:17:11;;;;;;;5.18;1.42;;;15.30;59.30;;;;;;6129746;23;20017;-83
2023/02/19 14:19:48;;;;;;;9.27;1.58;;;15.40;59.50;;;;;;6128790;23;20006;-82
2023/02/19 14:25:40;;;;;;;6.63;1.55;;;15.40;59.40;;;;;;6129700;23;20006;-82
2023/02/19 14:28:25;;;;;;;6.18;1.40;;;15.40;59.80;;;;;;6103977;23;20006;-82
2023/02/19 14:31:15;;;;;;;3.67;1.38;;;15.40;59.50;;;;;;6128832;23;20021;-82
2023/02/19 14:34:18;;;;;;;6.03;1.80;;;15.30;59.20;;;;;;6129890;23;20014;-82
2023/02/19 14:36:52;;;;;;;3.58;1.42;;;15.20;59.90;;;;;;6059297;23;20010;-82
2023/02/19 14:39:31;;;;;;;8.52;2.38;;;15.10;60.10;;;;;;6102894;23;20009;-82
2023/02/19 14:42:04;;;;;;;6.22;1.65;;;15.10;60.40;;;;;;6103260;23;20010;-81
2023/02/19 14:44:54;;;;;;;5.93;1.52;;;15.10;60.10;;;;;;6129765;23;20001;-82
2023/02/19 14:47:23;;;;;;;5.18;2.08;;;15.10;60.20;;;;;;6129272;23;19998;-82
2023/02/19 14:49:53;;;;;;;3.25;1.27;;;15.10;60.30;;;;;;6102594;23;20002;-81
2023/02/19 14:52:24;;;;;;;;;;;15.10;59.80;;;;;;6128793;23;20461;-81
2023/02/19 14:55:02;;;;;;;5.60;2.10;;;14.90;60.20;;;;;;6128635;23;19923;-81
2023/02/19 14:57:32;;;;;;;4.25;2.67;;;14.80;60.60;;;;;;6102966;23;20006;-81
2023/02/19 15:00:19;;;;;;;6.93;2.30;;;14.80;61.40;;;;;;6102103;23;20042;-82
2023/02/19 15:02:44;;;;;;;5.20;1.55;;;14.80;61.80;;;;;;6102663;23;20010;-80
2023/02/19 15:05:21;;;;;;;5.90;1.75;;;14.80;62.20;;;;;;6103065;23;20029;-83
2023/02/19 15:07:47;;;;;;;3.65;1.67;;;14.90;61.40;;;;;;6128394;23;20002;-83
2023/02/19 15:10:14;;;;;;;1.90;1.20;;;15.00;61.00;;;;;;6098627;23;20013;-81
2023/02/19 15:12:51;;;;;;;4.13;2.10;;;15.00;60.60;;;;;;6128752;23;20018;-82
2023/02/19 15:15:27;;;;;;;2.42;1.40;;;15.00;61.00;;;;;;6101125;23;20014;-82
2023/02/19 15:17:55;;;;;;;7.03;1.80;;;15.00;61.00;;;;;;6102232;23;20395;-82
2023/02/19 15:20:27;;;;;;;6.78;1.70;;;15.00;61.30;;;;;;6128854;23;20010;-82
2023/02/19 15:22:55;;;;;;;4.47;1.58;;;15.00;61.00;;;;;;6103481;23;20010;-82
2023/02/19 15:25:23;;;;;;;8.93;2.00;;;15.00;60.90;;;;;;6103371;23;20029;-82
2023/02/19 15:27:49;;;;;;;6.72;1.70;;;15.00;60.90;;;;;;6102879;23;20006;-82
2023/02/19 15:30:24;;;;;;;3.55;1.42;;;15.10;61.10;;;;;;6128970;23;20006;-82
2023/02/19 15:33:19;;;;;;;7.00;2.17;;;15.10;61.30;;;;;;6128801;23;20010;-82
2023/02/19 15:35:54;;;;;;;7.18;1.98;;;15.10;61.10;;;;;;6128524;23;20006;-82
2023/02/19 15:38:21;;;;;;;5.00;1.60;;;15.10;61.20;;;;;;6103592;23;20105;-82
2023/02/19 15:40:48;;;;;;;4.97;1.65;;;15.10;60.80;;;;;;6102847;23;20319;-83
2023/02/19 15:43:31;;;;;;;4.82;1.30;;;15.10;61.00;;;;;;6129408;23;20461;-83
2023/02/19 15:46:04;;;;;;;3.35;1.50;;;15.10;60.90;;;;;;6128773;23;20002;-83
2023/02/19 15:48:43;;;;;;;3.70;1.45;;;15.20;60.80;;;;;;6128984;23;20013;-83
2023/02/19 15:51:24;;;;;;;3.15;1.73;;;15.10;60.80;;;;;;6103308;23;20037;-82
2023/02/19 15:54:02;;;;;;;3.40;1.40;;;14.90;61.10;;;;;;6128528;23;20006;-85
2023/02/19 15:56:31;;;;;;;4.03;1.83;;;14.80;61.30;;;;;;6098755;23;20009;-83
2023/02/19 15:59:06;;;;;;;7.45;1.60;;;14.70;61.50;;;;;;6128599;23;20013;-83
2023/02/19 16:01:36;;;;;;;6.60;1.70;;;14.70;61.60;;;;;;6101632;23;20010;-85
2023/02/19 16:04:05;;;;;;;4.70;1.55;;;14.70;61.70;;;;;;6102965;23;20002;-84
2023/02/19 16:06:50;;;;;;;4.47;1.63;;;14.70;61.60;;;;;;6128506;23;19998;-84
2023/02/19 16:09:20;;;;;;;3.80;1.58;;;14.70;61.50;;;;;;6128504;23;19998;-83
2023/02/19 16:11:53;;;;;;;4.88;1.38;;;14.70;61.90;;;;;;6127473;23;20005;-83
2023/02/19 16:14:31;;;;;;;7.90;2.00;;;14.70;61.90;;;;;;6126521;23;20006;-83
2023/02/19 16:17:06;;;;;;;3.97;1.45;;;14.70;61.90;;;;;;6123687;23;20002;-83
2023/02/19 16:19:42;;;;;;;3.15;1.42;;;14.60;62.00;;;;;;6099986;23;20013;-80
2023/02/19 16:22:10;;;;;;;3.13;1.58;;;14.70;62.10;;;;;;6102288;23;20056;-84
2023/02/19 16:24:41;;;;;;;6.30;2.08;;;14.60;62.30;;;;;;6129286;23;20002;-85
2023/02/19 16:27:07;;;;;;;5.32;1.90;;;14.60;62.20;;;;;;6101990;23;20002;-82
2023/02/19 16:29:33;;;;;;;2.95;1.55;;;14.50;62.20;;;;;;6102142;23;20387;-76
2023/02/19 16:32:04;;;;;;;7.18;1.77;;;14.50;62.40;;;;;;6119896;23;20026;-83
2023/02/19 16:34:40;;;;;;;5.47;1.63;;;14.40;62.50;;;;;;6129131;23;20457;-87
2023/02/19 16:37:38;;;;;;;4.80;1.55;;;14.30;63.10;;;;;;6129033;23;20018;-86
2023/02/19 16:40:06;;;;;;;9.52;1.85;;;14.20;63.30;;;;;;6129081;23;20062;-83
2023/02/19 16:42:55;;;;;;;5.45;1.73;;;14.30;63.30;;;;;;6120770;23;20013;-85
2023/02/19 16:45:20;;;;;;;6.72;2.22;;;14.30;63.10;;;;;;6125435;23;20351;-89
2023/02/19 16:47:52;;;;;;;8.10;1.92;;;14.20;63.20;;;;;;6127087;23;20010;-81
2023/02/19 16:50:22;;;;;;;3.65;1.58;;;14.20;63.20;;;;;;6126096;23;20021;-84
2023/02/19 16:52:59;;;;;;;4.47;1.50;;;14.10;63.50;;;;;;6129818;23;20013;-84
2023/02/19 16:55:26;;;;;;;4.60;1.52;;;14.10;63.70;;;;;;6128904;23;20009;-90
2023/02/19 16:57:52;;;;;;;6.78;1.77;;;14.00;63.60;;;;;;6128357;23;20316;-87
2023/02/19 17:00:24;;;;;;;4.25;1.63;;;14.00;63.70;;;;;;6126981;23;20021;-84
2023/02/19 17:02:52;;;;;;;2.47;1.55;;;13.90;63.70;;;;;;6123100;23;20006;-87
2023/02/19 17:05:19;;;;;;;5.63;1.60;;;13.90;63.60;;;;;;6126757;23;20010;-84
2023/02/19 17:07:45;;;;;;;4.15;1.40;;;13.80;63.80;;;;;;6124051;23;20030;-92
2023/02/19 17:10:19;;;;;;;5.35;2.90;;;13.80;63.80;;;;;;6127920;23;20025;-83
2023/02/19 17:12:45;;;;;;;3.38;2.50;;;13.70;64.20;;;;;;6125618;23;20459;-83
2023/02/19 17:15:11;;;;;;;4.05;2.70;;;13.70;64.30;;;;;;6126057;23;20010;-82
2023/02/19 17:17:37;;;;;;;7.18;4.07;;;13.70;64.50;;;;;;6127769;23;20009;-83
2023/02/19 17:20:21;;;;;;;6.28;2.80;;;13.60;64.50;;;;;;6126808;23;20006;-82
2023/02/19 17:22:47;;;;;;;10.30;2.63;;;13.60;64.70;;;;;;6127809;23;20006;-83
2023/02/19 17:25:12;;;;;;;7.90;2.10;;;13.60;64.90;;;;;;6125450;23;20086;-80
2023/02/19 17:27:39;;;;;;;5.88;2.17;;;13.50;64.90;;;;;;6129356;23;20006;-86
2023/02/19 17:30:12;;;;;;;5.30;2.33;;;13.50;65.10;;;;;;6128735;23;20129;-81
2023/02/19 17:32:37;;;;;;;4.97;2.45;;;13.50;65.30;;;;;;6129766;23;20018;-85
2023/02/19 17:35:03;;;;;;;5.38;1.92;;;13.30;65.10;;;;;;6130161;23;20061;-83
2023/02/19 17:37:29;;;;;;;7.15;2.30;;;13.20;65.30;;;;;;6129773;23;20010;-88
2023/02/19 17:39:54;;;;;;;11.55;2.55;;;13.20;65.60;;;;;;6129182;23;20010;-84
2023/02/19 17:42:20;;;;;;;7.60;1.70;;;13.10;66.40;;;;;;6129164;23;20053;-88
2023/02/19 17:44:46;;;;;;;5.15;2.00;;;13.10;66.50;;;;;;6126092;23;20002;-85
2023/02/19 17:47:16;;;;;;;9.02;2.35;;;13.10;66.50;;;;;;6128829;23;20016;-90
2023/02/19 17:49:42;;;;;;;25.58;8.77;;;13.00;66.50;;;;;;6127065;23;20430;-88
2023/02/19 17:52:08;;;;;;;14.05;7.20;;;13.00;66.40;;;;;;6126985;23;20076;-83
2023/02/19 17:54:33;;;;;;;11.40;5.13;;;13.00;66.40;;;;;;6126572;23;20001;-84
2023/02/19 17:56:59;;;;;;;15.15;8.63;;;12.90;66.70;;;;;;6128463;23;20065;-84
2023/02/19 17:59:25;;;;;;;14.73;4.85;;;12.80;66.40;;;;;;6132166;23;20094;-85
2023/02/19 18:01:50;;;;;;;5.93;2.65;;;12.80;66.90;;;;;;6129763;23;20105;-84
2023/02/19 18:04:36;;;;;;;5.38;2.72;;;12.70;67.50;;;;;;6127303;23;20466;-84
2023/02/19 18:07:02;;;;;;;8.10;2.13;;;12.60;67.70;;;;;;6129711;23;20410;-85
2023/02/19 18:09:28;;;;;;;3.50;2.20;;;12.50;67.90;;;;;;6128042;23;20038;-79
2023/02/19 18:11:53;;;;;;;6.75;2.05;;;12.60;67.80;;;;;;6127506;23;20010;-83
2023/02/19 18:14:19;;;;;;;4.78;1.90;;;12.50;67.80;;;;;;6123892;23;20540;-77
2023/02/19 18:16:48;;;;;;;10.38;2.30;;;12.50;68.10;;;;;;6127422;23;20014;-82
2023/02/19 18:19:14;;;;;;;4.78;1.98;;;12.40;68.20;;;;;;6127549;23;20006;-82
2023/02/19 18:21:42;;;;;;;9.27;3.45;;;12.40;68.20;;;;;;6127671;23;20064;-83
2023/02/19 18:24:07;;;;;;;9.45;4.40;;;12.30;68.30;;;;;;6124979;23;20004;-78
2023/02/19 18:26:33;;;;;;;11.43;3.72;;;12.30;68.30;;;;;;6129049;23;20080;-80
2023/02/19 18:28:59;;;;;;;7.35;2.42;;;12.30;68.40;;;;;;6126692;23;20005;-79
2023/02/19 18:31:25;;;;;;;12.18;2.92;;;12.30;68.50;;;;;;6132495;23;20024;-80
2023/02/19 18:33:50;;;;;;;8.27;2.38;;;12.30;68.60;;;;;;6104387;23;20034;-80
2023/02/19 18:36:16;;;;;;;7.90;2.03;;;12.20;68.30;;;;;;6134581;23;20045;-79
2023/02/19 18:38:42;;;;;;;10.07;2.30;;;12.10;68.80;;;;;;6131181;23;20029;-79
2023/02/19 18:41:12;;;;;;;7.47;3.28;;;12.00;69.00;;;;;;6133689;23;20002;-84
2023/02/19 18:43:40;;;;;;;7.47;2.83;;;12.00;69.20;;;;;;6104941;23;20006;-83
2023/02/19 18:46:09;;;;;;;9.30;3.28;;;11.90;69.10;;;;;;6129401;23;20010;-82
2023/02/19 18:48:36;;;;;;;9.68;3.97;;;11.90;69.20;;;;;;6129912;23;20032;-83
2023/02/19 18:51:01;;;;;;;4.53;2.92;;;11.90;69.30;;;;;;6129664;23;20002;-80